createdAt,value
2023-02-18T00:00:19.475Z,39.40
2023-02-18T00:05:22.124Z,37.50
2023-02-18T00:10:24.509Z,35.08
2023-02-18T00:15:26.624Z,33.28
2023-02-18T00:20:28.711Z,33.67
2023-02-18T00:25:30.887Z,32.00
2023-02-18T00:30:33.097Z,28.50
2023-02-18T00:35:35.624Z,27.60
2023-02-18T00:40:42.285Z,26.63
2023-02-18T00:45:44.433Z,26.33
2023-02-18T00:50:47.173Z,25.27
2023-02-18T00:55:49.393Z,23.73
2023-02-18T01:00:52.153Z,23.55
2023-02-18T01:05:54.529Z,25.70
2023-02-18T01:10:59.465Z,24.80
2023-02-18T01:16:01.826Z,25.05
2023-02-18T01:21:05.652Z,25.27
2023-02-18T01:26:08.910Z,25.80
2023-02-18T01:31:13.719Z,24.08
2023-02-18T01:36:19.493Z,22.92
2023-02-18T01:41:21.939Z,24.67
2023-02-18T01:46:24.141Z,23.05
2023-02-18T01:51:28.804Z,24.35
2023-02-18T01:57:06.255Z,24.08
2023-02-18T02:02:13.413Z,24.38
2023-02-18T02:07:16.376Z,22.35
2023-02-18T02:12:25.608Z,23.30
2023-02-18T02:17:42.684Z,22.92
2023-02-18T02:22:56.236Z,23.95
2023-02-18T02:28:41.255Z,24.35
2023-02-18T02:33:52.289Z,23.67
2023-02-18T02:39:22.004Z,26.23
2023-02-18T02:44:39.043Z,23.65
2023-02-18T02:49:49.378Z,23.10
2023-02-18T03:00:02.803Z,22.63
2023-02-18T03:10:40.155Z,20.85
2023-02-18T03:15:54.178Z,21.10
2023-02-18T03:21:05.017Z,22.05
2023-02-18T03:26:10.047Z,22.90
2023-02-18T03:31:21.582Z,22.83
2023-02-18T03:36:25.036Z,22.35
2023-02-18T03:41:27.705Z,25.75
2023-02-18T03:46:30.950Z,28.65
2023-02-18T03:51:33.189Z,27.92
2023-02-18T03:56:37.217Z,26.45
2023-02-18T04:01:40.321Z,30.02
2023-02-18T04:06:42.473Z,29.65
2023-02-18T04:11:44.639Z,32.25
2023-02-18T04:16:46.756Z,30.73
2023-02-18T04:21:48.891Z,31.40
2023-02-18T04:26:51.070Z,29.30
2023-02-18T04:31:53.311Z,31.17
2023-02-18T04:36:56.531Z,29.42
2023-02-18T04:41:58.675Z,27.73
2023-02-18T04:47:00.779Z,27.70
2023-02-18T04:52:03.202Z,28.42
2023-02-18T04:57:05.463Z,27.55
2023-02-18T05:02:07.760Z,28.20
2023-02-18T05:07:09.912Z,28.35
2023-02-18T05:12:12.107Z,25.73
2023-02-18T05:17:14.296Z,26.25
2023-02-18T05:22:16.488Z,26.50
2023-02-18T05:27:18.663Z,22.42
2023-02-18T05:32:20.869Z,21.92
2023-02-18T05:37:23.046Z,21.98
2023-02-18T05:42:25.309Z,30.30
2023-02-18T05:47:27.552Z,23.65
2023-02-18T05:52:29.776Z,21.27
2023-02-18T05:57:32.901Z,21.63
2023-02-18T06:02:36.334Z,20.83
2023-02-18T06:07:39.001Z,21.45
2023-02-18T06:12:41.143Z,22.70
2023-02-18T06:17:43.289Z,24.23
2023-02-18T06:22:45.455Z,25.25
2023-02-18T06:27:47.572Z,24.80
2023-02-18T06:32:49.790Z,24.25
2023-02-18T06:37:52.458Z,27.20
2023-02-18T06:42:54.806Z,30.10
2023-02-18T06:47:57.450Z,29.33
2023-02-18T06:52:59.943Z,29.42
2023-02-18T06:58:02.075Z,35.88
2023-02-18T07:03:05.038Z,32.33
2023-02-18T07:08:07.232Z,35.38
2023-02-18T07:13:09.453Z,34.92
2023-02-18T07:18:11.857Z,31.55
2023-02-18T07:23:14.323Z,31.25
2023-02-18T07:28:17.084Z,31.98
2023-02-18T07:33:19.266Z,33.20
2023-02-18T07:38:22.399Z,33.10
2023-02-18T07:43:24.996Z,30.77
2023-02-18T07:48:27.600Z,32.70
2023-02-18T07:53:29.829Z,33.30
2023-02-18T07:58:35.260Z,32.33
2023-02-18T08:03:37.840Z,33.40
2023-02-18T08:08:39.951Z,30.58
2023-02-18T08:13:42.126Z,27.90
2023-02-18T08:18:44.614Z,25.65
2023-02-18T08:23:47.722Z,27.65
2023-02-18T08:28:50.019Z,26.45
2023-02-18T08:33:53.709Z,27.02
2023-02-18T08:38:55.984Z,29.20
2023-02-18T08:43:58.243Z,29.70
2023-02-18T08:49:00.477Z,27.55
2023-02-18T08:54:03.301Z,28.98
2023-02-18T08:59:05.713Z,29.08
2023-02-18T09:04:07.819Z,29.33
2023-02-18T09:09:10.655Z,30.85
2023-02-18T09:14:13.324Z,33.55
2023-02-18T09:19:15.702Z,32.85
2023-02-18T09:24:17.987Z,31.33
2023-02-18T09:29:20.238Z,33.28
2023-02-18T09:34:22.426Z,34.67
2023-02-18T09:39:24.969Z,35.13
2023-02-18T09:44:34.729Z,31.98
2023-02-18T09:49:40.750Z,33.13
2023-02-18T09:54:43.135Z,32.55
2023-02-18T09:59:56.880Z,29.17
2023-02-18T10:04:59.410Z,29.38
2023-02-18T10:10:16.791Z,29.27
2023-02-18T10:15:25.512Z,30.60
2023-02-18T10:20:30.897Z,30.65
2023-02-18T10:25:44.683Z,30.88
2023-02-18T10:31:01.328Z,28.60
2023-02-18T10:36:10.926Z,27.92
2023-02-18T10:41:37.488Z,26.80
2023-02-18T10:47:09.528Z,25.08
2023-02-18T10:52:17.678Z,26.15
2023-02-18T10:57:24.453Z,23.50
2023-02-18T11:02:31.879Z,26.13
2023-02-18T11:07:36.083Z,28.00
2023-02-18T11:12:51.256Z,26.85
2023-02-18T11:17:56.277Z,25.48
2023-02-18T11:23:08.747Z,27.30
2023-02-18T11:28:14.873Z,28.83
2023-02-18T11:33:21.649Z,28.50
2023-02-18T11:38:35.231Z,30.00
2023-02-18T11:43:42.207Z,24.73
2023-02-18T11:48:45.077Z,22.90
2023-02-18T11:54:02.360Z,25.92
2023-02-18T11:59:05.016Z,23.70
2023-02-18T12:04:25.777Z,25.85
2023-02-18T12:09:33.828Z,23.92
2023-02-18T12:14:36.746Z,22.42
2023-02-18T12:19:50.607Z,23.00
2023-02-18T12:24:58.641Z,18.58
2023-02-18T12:30:28.808Z,17.15
2023-02-18T12:35:42.752Z,16.80
2023-02-18T12:40:52.611Z,15.63
2023-02-18T12:46:23.846Z,14.02
2023-02-18T12:51:49.673Z,13.35
2023-02-18T12:57:15.123Z,12.77
2023-02-18T13:02:59.631Z,11.27
2023-02-18T13:08:23.147Z,6.55
2023-02-18T13:13:30.388Z,7.13
2023-02-18T13:18:37.054Z,7.75
2023-02-18T13:23:58.809Z,7.35
2023-02-18T13:29:25.096Z,5.88
2023-02-18T13:34:43.307Z,5.38
2023-02-18T13:39:53.751Z,4.15
2023-02-18T13:44:56.076Z,3.90
2023-02-18T13:49:58.394Z,4.13
2023-02-18T13:55:00.582Z,4.72
2023-02-18T14:00:17.827Z,7.18
2023-02-18T14:05:25.416Z,4.55
2023-02-18T14:10:32.778Z,4.47
2023-02-18T14:15:34.986Z,4.95
2023-02-18T14:20:39.961Z,5.20
2023-02-18T14:25:42.835Z,4.78
2023-02-18T14:30:45.744Z,5.18
2023-02-18T14:36:18.211Z,5.15
2023-02-18T14:41:50.139Z,4.55
2023-02-18T14:46:58.657Z,4.82
2023-02-18T14:52:03.594Z,5.80
2023-02-18T14:57:09.944Z,4.82
2023-02-18T15:02:28.141Z,5.00
2023-02-18T15:07:30.338Z,4.72
2023-02-18T15:12:32.923Z,5.18
2023-02-18T15:17:35.304Z,5.03
2023-02-18T15:22:37.797Z,5.72
2023-02-18T15:27:44.865Z,5.93
2023-02-18T15:32:53.282Z,5.57
2023-02-18T15:37:58.544Z,8.37
2023-02-18T15:43:02.987Z,7.95
2023-02-18T15:48:06.398Z,6.07
2023-02-18T15:53:15.641Z,7.20
2023-02-18T15:58:24.252Z,9.25
2023-02-18T16:03:29.666Z,10.47
2023-02-18T16:08:31.978Z,20.83
2023-02-18T16:13:37.947Z,27.27
2023-02-18T16:18:42.358Z,22.85
2023-02-18T16:24:04.460Z,12.65
2023-02-18T16:29:16.321Z,16.50
2023-02-18T16:34:19.391Z,18.67
2023-02-18T16:39:22.739Z,15.73
2023-02-18T16:44:24.969Z,12.60
2023-02-18T16:49:29.093Z,15.80
2023-02-18T16:54:31.380Z,13.13
2023-02-18T16:59:33.988Z,11.82
2023-02-18T17:04:36.287Z,11.27
2023-02-18T17:09:38.655Z,15.50
2023-02-18T17:14:41.208Z,21.52
2023-02-18T17:19:43.721Z,16.52
2023-02-18T17:24:45.852Z,16.77
2023-02-18T17:29:48.088Z,16.52
2023-02-18T17:34:50.238Z,18.90
2023-02-18T17:39:53.005Z,19.02
2023-02-18T17:44:55.319Z,18.25
2023-02-18T17:49:57.413Z,19.13
2023-02-18T17:54:59.678Z,21.10
2023-02-18T18:00:02.154Z,22.48
2023-02-18T18:05:04.692Z,19.95
2023-02-18T18:10:07.544Z,24.67
2023-02-18T18:15:24.127Z,30.02
2023-02-18T18:20:28.468Z,32.72
2023-02-18T18:25:36.363Z,35.50
2023-02-18T18:30:42.093Z,27.25
2023-02-18T18:35:46.435Z,45.10
2023-02-18T18:40:49.369Z,35.53
2023-02-18T18:45:52.447Z,41.95
2023-02-18T18:50:55.345Z,45.85
2023-02-18T18:56:01.810Z,41.83
2023-02-18T19:01:05.795Z,54.97
2023-02-18T19:06:11.973Z,46.92
2023-02-18T19:11:15.210Z,44.42
2023-02-18T19:16:22.622Z,45.42
2023-02-18T19:21:24.962Z,48.33
2023-02-18T19:26:28.063Z,47.25
2023-02-18T19:31:30.421Z,58.35
2023-02-18T19:36:32.587Z,49.00
2023-02-18T19:41:34.794Z,58.10
2023-02-18T19:46:38.662Z,49.33
2023-02-18T19:51:40.930Z,57.30
2023-02-18T19:56:43.216Z,61.03
2023-02-18T20:01:45.421Z,48.45
2023-02-18T20:06:47.676Z,38.45
2023-02-18T20:11:50.246Z,36.80
2023-02-18T20:16:52.592Z,33.97
2023-02-18T20:21:58.724Z,34.95
2023-02-18T20:27:02.855Z,34.45
2023-02-18T20:32:06.508Z,34.28
2023-02-18T20:37:09.049Z,36.65
2023-02-18T20:42:16.734Z,40.55
2023-02-18T20:47:19.504Z,42.65
2023-02-18T20:52:22.100Z,34.13
2023-02-18T20:57:24.719Z,39.33
2023-02-18T21:02:27.553Z,39.55
2023-02-18T21:07:30.039Z,34.47
2023-02-18T21:12:32.512Z,32.90
2023-02-18T21:17:34.851Z,28.90
2023-02-18T21:22:37.334Z,28.88
2023-02-18T21:27:39.643Z,27.02
2023-02-18T21:32:41.922Z,27.73
2023-02-18T21:37:44.610Z,27.67
2023-02-18T21:42:46.944Z,41.80
2023-02-18T21:47:49.704Z,32.00
2023-02-18T21:52:52.194Z,32.67
2023-02-18T21:57:54.313Z,32.58
2023-02-18T22:02:56.504Z,31.95
2023-02-18T22:07:58.845Z,34.33
2023-02-18T22:13:01.118Z,30.83
2023-02-18T22:18:03.443Z,32.20
2023-02-18T22:23:05.701Z,28.27
2023-02-18T22:28:07.985Z,25.48
2023-02-18T22:33:10.136Z,26.65
2023-02-18T22:38:12.359Z,26.65
2023-02-18T22:43:14.598Z,24.92
2023-02-18T22:48:19.003Z,24.92
2023-02-18T22:53:22.234Z,23.98
2023-02-18T22:58:24.622Z,22.10
2023-02-18T23:03:28.327Z,21.50
2023-02-18T23:08:31.387Z,21.85
2023-02-18T23:13:34.173Z,21.63
2023-02-18T23:18:36.849Z,20.00
2023-02-18T23:23:39.356Z,21.75
2023-02-18T23:28:48.251Z,20.83
2023-02-18T23:33:55.059Z,20.70
2023-02-18T23:39:00.451Z,27.83
2023-02-18T23:44:07.376Z,19.40
2023-02-18T23:49:11.804Z,19.25
2023-02-18T23:54:14.019Z,18.23
2023-02-18T23:59:16.898Z,18.38
